Time;durP1;ratioP1;P1;durP2;ratioP2;P2;SDS_P1;SDS_P2;PMS_P1;PMS_P2;Temp;Humidity;BMP_temperature;BMP_pressure;BME280_temperature;BME280_humidity;BME280_pressure;Samples;Min_cycle;Max_cycle;Signal;HPM_P1;HPM_P2
2022/06/17 00:01:59;;;;;;;5.93;5.30;;;;;;;;;;5032581;28;20100;-74
2022/06/17 00:04:25;;;;;;;10.00;5.30;;;;;;;;;;5032505;28;20049;-79
2022/06/17 00:06:55;;;;;;;6.07;5.10;;;;;;;;;;5032692;28;20029;-79
2022/06/17 00:09:21;;;;;;;6.60;5.20;;;;;;;;;;5032741;28;20360;-79
2022/06/17 00:11:47;;;;;;;5.65;4.68;;;;;;;;;;5033139;28;20082;-80
2022/06/17 00:14:18;;;;;;;6.13;4.75;;;;;;;;;;5032828;28;20021;-79
2022/06/17 00:16:45;;;;;;;8.07;4.75;;;;;;;;;;5032880;28;20123;-78
2022/06/17 00:19:11;;;;;;;8.40;4.63;;;;;;;;;;5032633;28;20157;-79
2022/06/17 00:21:42;;;;;;;6.38;4.75;;;;;;;;;;5032506;28;20017;-80
2022/06/17 00:24:28;;;;;;;7.70;4.93;;;;;;;;;;5032879;28;20099;-78
2022/06/17 00:26:55;;;;;;;5.75;4.60;;;;;;;;;;5032375;28;20061;-78
2022/06/17 00:29:21;;;;;;;9.55;4.85;;;;;;;;;;5032679;28;20168;-79
2022/06/17 00:31:47;;;;;;;4.70;4.30;;;;;;;;;;5032277;28;20024;-78
2022/06/17 00:34:13;;;;;;;5.53;4.75;;;;;;;;;;5032499;28;20057;-80
2022/06/17 00:36:40;;;;;;;5.35;4.40;;;;;;;;;;5032561;28;20107;-79
2022/06/17 00:39:12;;;;;;;7.10;4.78;;;;;;;;;;5032172;28;20029;-78
2022/06/17 00:41:39;;;;;;;7.97;4.43;;;;;;;;;;5014429;28;20034;-78
2022/06/17 00:44:24;;;;;;;6.35;5.32;;;;;;;;;;5035712;28;20116;-79
2022/06/17 00:47:14;;;;;;;4.85;4.13;;;;;;;;;;5036221;28;20025;-78
2022/06/17 00:49:52;;;;;;;7.40;5.03;;;;;;;;;;5025557;28;20092;-79
2022/06/17 00:52:20;;;;;;;6.13;4.45;;;;;;;;;;5035675;28;20036;-78
2022/06/17 00:54:51;;;;;;;5.22;4.57;;;;;;;;;;5035917;28;20384;-78
2022/06/17 00:57:17;;;;;;;6.05;4.60;;;;;;;;;;5035668;28;20037;-76
2022/06/17 00:59:43;;;;;;;5.80;4.47;;;;;;;;;;5035910;28;20024;-79
2022/06/17 01:02:10;;;;;;;6.70;4.70;;;;;;;;;;5035719;28;20033;-77
2022/06/17 01:04:41;;;;;;;8.57;4.88;;;;;;;;;;5035439;28;20503;-78
2022/06/17 01:07:07;;;;;;;4.70;4.22;;;;;;;;;;5035382;28;20033;-77
2022/06/17 01:12:21;;;;;;;5.10;4.60;;;;;;;;;;5035662;28;20541;-80
2022/06/17 01:14:47;;;;;;;5.90;4.85;;;;;;;;;;5035462;28;20498;-79
2022/06/17 01:17:15;;;;;;;7.75;4.78;;;;;;;;;;5035322;28;20038;-79
2022/06/17 01:19:43;;;;;;;6.57;4.30;;;;;;;;;;5035263;28;20371;-80
2022/06/17 01:22:20;;;;;;;6.18;5.10;;;;;;;;;;5035370;28;20026;-79
2022/06/17 01:24:47;;;;;;;9.02;5.03;;;;;;;;;;5017375;28;20084;-79
2022/06/17 01:27:14;;;;;;;5.40;4.35;;;;;;;;;;5035229;28;20459;-78
2022/06/17 01:29:40;;;;;;;6.25;4.63;;;;;;;;;;5035172;28;20026;-79
2022/06/17 01:32:07;;;;;;;9.23;4.25;;;;;;;;;;5035048;28;20071;-78
2022/06/17 01:34:33;;;;;;;5.45;4.00;;;;;;;;;;5035239;28;20140;-79
2022/06/17 01:37:00;;;;;;;5.90;4.18;;;;;;;;;;5034821;28;20038;-79
2022/06/17 01:39:26;;;;;;;5.50;4.90;;;;;;;;;;5034913;28;20032;-79
2022/06/17 01:41:53;;;;;;;5.30;4.55;;;;;;;;;;5034941;28;20030;-79
2022/06/17 01:44:25;;;;;;;6.07;4.93;;;;;;;;;;5034850;28;20025;-77
2022/06/17 01:46:53;;;;;;;6.18;4.57;;;;;;;;;;5034747;28;20080;-80
2022/06/17 01:49:21;;;;;;;8.20;4.40;;;;;;;;;;5034574;28;20030;-78
2022/06/17 01:52:14;;;;;;;9.10;4.72;;;;;;;;;;5034786;28;20502;-80
2022/06/17 01:54:46;;;;;;;5.30;4.32;;;;;;;;;;5013524;28;20026;-77
2022/06/17 01:57:16;;;;;;;6.70;4.40;;;;;;;;;;5034569;28;20040;-75
2022/06/17 01:59:48;;;;;;;5.60;4.35;;;;;;;;;;5034541;28;20025;-79
2022/06/17 02:02:15;;;;;;;7.93;4.35;;;;;;;;;;5034658;28;20504;-79
2022/06/17 02:04:44;;;;;;;4.72;4.10;;;;;;;;;;5034189;28;20073;-79
2022/06/17 02:07:14;;;;;;;4.35;3.65;;;;;;;;;;5034422;28;20121;-78
2022/06/17 02:09:40;;;;;;;7.07;4.40;;;;;;;;;;5034452;28;20021;-79
2022/06/17 02:12:07;;;;;;;8.10;4.30;;;;;;;;;;5034178;28;20108;-77
2022/06/17 02:14:33;;;;;;;6.07;4.07;;;;;;;;;;5034298;28;20022;-79
2022/06/17 02:17:00;;;;;;;8.55;4.47;;;;;;;;;;5034180;28;20034;-79
2022/06/17 02:19:28;;;;;;;7.07;4.68;;;;;;;;;;5034063;28;20026;-71
2022/06/17 02:21:58;;;;;;;6.15;4.22;;;;;;;;;;5034339;28;20017;-70
2022/06/17 02:24:25;;;;;;;3.70;2.97;;;;;;;;;;5034075;28;20116;-73
2022/06/17 02:26:52;;;;;;;7.65;4.30;;;;;;;;;;5033842;28;20506;-70
2022/06/17 02:29:19;;;;;;;6.10;4.25;;;;;;;;;;5034080;28;20025;-77
2022/06/17 02:31:46;;;;;;;5.03;4.22;;;;;;;;;;5033823;28;20048;-70
2022/06/17 02:34:13;;;;;;;14.65;4.18;;;;;;;;;;5033793;28;20495;-78
2022/06/17 02:36:48;;;;;;;5.05;4.18;;;;;;;;;;5033697;28;20079;-78
2022/06/17 02:39:15;;;;;;;7.30;4.03;;;;;;;;;;5033954;28;20044;-75
2022/06/17 02:41:41;;;;;;;6.72;4.10;;;;;;;;;;5033711;28;20034;-70
2022/06/17 02:44:16;;;;;;;8.77;4.55;;;;;;;;;;5033633;28;20450;-70
2022/06/17 02:46:42;;;;;;;8.05;4.47;;;;;;;;;;5033782;28;20025;-78
2022/06/17 02:49:14;;;;;;;6.57;4.60;;;;;;;;;;5033457;28;20403;-78
2022/06/17 02:51:42;;;;;;;4.85;3.90;;;;;;;;;;5015885;28;20033;-72
2022/06/17 02:54:11;;;;;;;6.97;4.28;;;;;;;;;;5033356;28;20030;-73
2022/06/17 02:56:38;;;;;;;5.03;3.72;;;;;;;;;;5033572;28;20033;-78
2022/06/17 02:59:28;;;;;;;6.18;3.80;;;;;;;;;;5033189;28;20049;-72
2022/06/17 03:01:56;;;;;;;6.63;4.55;;;;;;;;;;4953268;28;20086;-78
2022/06/17 03:04:25;;;;;;;5.50;4.05;;;;;;;;;;4952922;28;20051;-76
2022/06/17 03:06:51;;;;;;;5.60;4.30;;;;;;;;;;4935998;29;20055;-78
2022/06/17 03:09:23;;;;;;;5.72;4.30;;;;;;;;;;4953108;29;20151;-78
2022/06/17 03:11:52;;;;;;;7.68;4.22;;;;;;;;;;4953098;28;20027;-79
2022/06/17 03:14:19;;;;;;;6.38;4.20;;;;;;;;;;4953154;29;20078;-69
2022/06/17 03:16:47;;;;;;;6.07;4.60;;;;;;;;;;4953121;29;20182;-77
2022/06/17 03:19:14;;;;;;;5.47;4.13;;;;;;;;;;4952854;29;20032;-79
2022/06/17 03:21:40;;;;;;;7.70;4.38;;;;;;;;;;4953114;29;20081;-79
2022/06/17 03:24:11;;;;;;;12.27;5.13;;;;;;;;;;4953210;29;20027;-80
2022/06/17 03:26:44;;;;;;;7.75;6.00;;;;;;;;;;4952924;29;20027;-77
2022/06/17 03:29:12;;;;;;;6.25;5.03;;;;;;;;;;4952984;29;20030;-79
2022/06/17 03:31:45;;;;;;;66.22;10.02;;;;;;;;;;4952955;29;20483;-79
2022/06/17 03:34:15;;;;;;;8.52;5.25;;;;;;;;;;4952637;29;20450;-71
2022/06/17 03:36:44;;;;;;;7.22;4.22;;;;;;;;;;4952879;29;20081;-79
2022/06/17 03:39:26;;;;;;;14.63;5.53;;;;;;;;;;5003366;28;20046;-79
2022/06/17 03:42:04;;;;;;;5.67;4.20;;;;;;;;;;5033077;28;20025;-80
2022/06/17 03:44:34;;;;;;;6.63;4.60;;;;;;;;;;5019746;28;20112;-79
2022/06/17 03:47:06;;;;;;;6.97;4.55;;;;;;;;;;5032869;28;20018;-79
2022/06/17 03:49:52;;;;;;;6.28;4.78;;;;;;;;;;5033113;28;20024;-80
2022/06/17 03:52:18;;;;;;;7.32;4.80;;;;;;;;;;5032547;28;20029;-79
2022/06/17 03:54:45;;;;;;;7.63;4.82;;;;;;;;;;5033107;28;20021;-78
2022/06/17 03:57:12;;;;;;;6.22;4.45;;;;;;;;;;5032507;28;20132;-76
2022/06/17 03:59:41;;;;;;;15.23;5.45;;;;;;;;;;5033103;28;20024;-78
2022/06/17 04:02:12;;;;;;;6.63;4.75;;;;;;;;;;5015125;28;20117;-78
2022/06/17 04:04:40;;;;;;;11.88;5.10;;;;;;;;;;5032278;28;20120;-78
2022/06/17 04:07:06;;;;;;;17.42;6.20;;;;;;;;;;5032684;28;20096;-79
2022/06/17 04:09:37;;;;;;;19.80;6.80;;;;;;;;;;5032417;28;20025;-76
2022/06/17 04:12:13;;;;;;;10.35;5.63;;;;;;;;;;5032532;28;20026;-78
2022/06/17 04:14:57;;;;;;;12.38;6.00;;;;;;;;;;5032606;28;21138;-78
2022/06/17 04:17:35;;;;;;;15.63;6.00;;;;;;;;;;5033464;28;20034;-78
2022/06/17 04:20:32;;;;;;;10.80;5.78;;;;;;;;;;5036351;28;20013;-72
2022/06/17 04:23:05;;;;;;;13.57;5.30;;;;;;;;;;5018662;28;20033;-79
2022/06/17 04:25:31;;;;;;;27.65;7.07;;;;;;;;;;5036343;28;20490;-78
2022/06/17 04:28:06;;;;;;;12.52;6.70;;;589.00;2304.00;;;;;;5036293;28;20022;-79
2022/06/17 04:30:36;;;;;;;8.13;5.45;;;589.00;2304.00;;;;;;5036241;28;20076;-79
2022/06/17 04:33:11;;;;;;;14.85;5.72;;;589.00;2304.00;;;;;;5036045;28;20026;-71
2022/06/17 04:35:36;;;;;;;12.20;6.53;;;589.00;2278.40;;;;;;5036222;28;20025;-69
2022/06/17 04:38:03;;;;;;;12.13;6.90;;;588.90;2304.00;;;;;;5036205;28;20034;-78
2022/06/17 04:40:54;;;;;;;33.55;8.50;;;589.00;2304.00;;;;;;5036083;28;20021;-78
2022/06/17 04:43:33;;;;;;;13.75;6.90;;;589.00;2355.20;;;;;;5035826;28;20476;-78
2022/06/17 04:46:04;;;;;;;15.43;7.90;;;589.00;2406.40;;;;;;5035887;28;20052;-78
2022/06/17 04:48:30;;;;;;;20.63;9.70;;;589.00;2432.00;;;;;;5035763;28;20032;-79
2022/06/17 04:50:56;;;;;;;17.58;12.18;;;589.00;2432.00;;;;;;5035740;28;20029;-78
2022/06/17 04:53:22;;;;;;;20.55;11.10;;;589.00;2432.00;;;;;;5035765;28;20034;-76
2022/06/17 04:55:48;;;;;;;15.88;8.10;;;589.00;2432.00;;;;;;5035466;28;20075;-79
2022/06/17 04:58:19;;;;;;;14.98;8.63;;;588.90;2432.00;;;;;;5035726;28;20494;-78
2022/06/17 05:00:54;;;;;;;13.95;9.15;;;588.90;2432.00;;;;;;5035704;28;20033;-78
2022/06/17 05:03:23;;;;;;;19.80;9.98;;;588.90;2432.00;;;;;;5018669;28;20017;-78
2022/06/17 05:05:49;;;;;;;18.85;10.45;;;588.90;2432.00;;;;;;5035377;28;20045;-78
2022/06/17 05:08:35;;;;;;;16.52;9.80;;;588.90;2432.00;;;;;;5022224;28;20044;-76
2022/06/17 05:11:19;;;;;;;21.38;9.65;;;589.00;2432.00;;;;;;5035420;28;20048;-76
2022/06/17 05:13:53;;;;;;;13.23;8.63;;;589.00;2432.00;;;;;;5035534;28;20029;-79
2022/06/17 05:16:19;;;;;;;12.68;9.45;;;589.00;2432.00;;;;;;5035282;28;20021;-78
2022/06/17 05:18:45;;;;;;;11.68;8.27;;;588.90;2432.00;;;;;;5035875;28;20353;-75
2022/06/17 05:21:20;;;;;;;10.75;7.55;;;588.90;2432.00;;;;;;5035058;28;20033;-77
2022/06/17 05:23:50;;;;;;;10.35;7.13;;;588.90;2432.00;;;;;;5017450;28;20392;-79
2022/06/17 05:26:16;;;;;;;10.85;6.90;;;588.90;2432.00;;;;;;5034919;28;20101;-77
2022/06/17 05:28:42;;;;;;;7.35;6.65;;;588.90;2432.00;;;;;;5034584;28;20476;-78
2022/06/17 05:31:13;;;;;;;8.88;7.38;;;588.90;2432.00;;;;;;5017400;28;20068;-79
2022/06/17 05:33:39;;;;;;;9.27;7.50;;;589.10;2432.00;;;;;;5034868;28;20479;-70
2022/06/17 05:36:05;;;;;;;12.57;8.68;;;589.10;2432.00;;;;;;5034959;28;20046;-75
2022/06/17 05:38:31;;;;;;;13.20;8.50;;;;;;;;;;5034938;28;20379;-79
2022/06/17 05:40:57;;;;;;;10.70;8.32;;;589.20;2432.00;;;;;;5034910;28;20375;-76
2022/06/17 05:43:23;;;;;;;11.25;8.65;;;589.20;2432.00;;;;;;5035299;28;20025;-79
2022/06/17 05:45:49;;;;;;;12.90;9.60;;;589.20;2432.00;;;;;;5034727;28;20013;-78
2022/06/17 05:48:15;;;;;;;11.70;9.73;;;589.30;2432.00;;;;;;5034675;28;20096;-70
2022/06/17 05:50:41;;;;;;;13.20;9.80;;;589.30;2432.00;;;;;;5034860;28;20029;-72
2022/06/17 05:53:08;;;;;;;11.18;10.00;;;;;;;;;;5034576;28;20029;-70
2022/06/17 05:55:35;;;;;;;12.55;9.90;;;;;;;;;;5016905;28;20039;-78
2022/06/17 05:58:02;;;;;;;13.73;10.73;;;589.50;2432.00;;;;;;5034535;28;20037;-80
2022/06/17 06:00:30;;;;;;;13.40;11.32;;;589.40;2432.00;;;;;;5034413;28;20025;-71
2022/06/17 06:03:01;;;;;;;12.13;9.82;;;589.50;2432.00;;;;;;5034225;28;20025;-79
2022/06/17 06:05:29;;;;;;;14.50;10.82;;;;;;;;;;5034165;28;20077;-78
2022/06/17 06:07:55;;;;;;;19.90;13.50;;;;;;;;;;5034301;28;20124;-79
2022/06/17 06:10:21;;;;;;;51.25;11.35;;;;;;;;;;5034384;28;20030;-80
2022/06/17 06:12:53;;;;;;;13.57;9.55;;;;;;;;;;5034382;28;20025;-78
2022/06/17 06:15:20;;;;;;;11.35;8.82;;;;;;;;;;5034618;28;20025;-77
2022/06/17 06:17:46;;;;;;;13.15;11.70;;;;;;;;;;5033910;28;20037;-78
2022/06/17 06:20:13;;;;;;;15.00;9.95;;;;;;;;;;5034102;28;20029;-79
2022/06/17 06:22:39;;;;;;;12.27;8.95;;;;;;;;;;5034045;28;20040;-80
2022/06/17 06:25:05;;;;;;;11.10;9.82;;;;;;;;;;5033834;28;20032;-78
2022/06/17 06:27:31;;;;;;;11.98;10.13;;;614.80;2432.00;;;;;;5034303;28;20490;-80
2022/06/17 06:29:57;;;;;;;9.95;8.95;;;614.90;2432.00;;;;;;5033733;28;20025;-75
2022/06/17 06:32:23;;;;;;;11.82;10.50;;;614.90;2432.00;;;;;;5033704;28;20068;-79
2022/06/17 06:34:51;;;;;;;16.52;12.52;;;614.90;2432.00;;;;;;5033809;28;20064;-78
2022/06/17 06:37:17;;;;;;;15.60;11.30;;;615.10;2432.00;;;;;;5033746;28;20403;-79
2022/06/17 06:39:43;;;;;;;21.27;13.95;;;;;;;;;;5033802;28;20022;-78
2022/06/17 06:42:09;;;;;;;13.13;11.73;;;;;;;;;;5033647;28;20123;-79
2022/06/17 06:44:35;;;;;;;19.27;14.45;;;;;;;;;;5033977;28;20021;-78
2022/06/17 06:47:01;;;;;;;14.88;12.52;;;;;;;;;;5033712;28;20088;-79
2022/06/17 06:49:28;;;;;;;15.10;12.02;;;;;;;;;;5033774;28;20022;-80
2022/06/17 06:51:54;;;;;;;15.55;13.35;;;;;;;;;;5016060;28;20033;-79
2022/06/17 06:54:20;;;;;;;12.27;9.68;;;;;;;;;;5033536;28;20088;-76
2022/06/17 06:56:46;;;;;;;12.52;9.48;;;;;;;;;;5033699;28;20029;-76
2022/06/17 06:59:12;;;;;;;10.13;8.57;;;;;;;;;;5033380;28;20033;-78
2022/06/17 07:01:38;;;;;;;13.65;7.93;;;;;;;;;;5033401;28;20029;-79
2022/06/17 07:04:05;;;;;;;10.98;7.55;;;;;;;;;;5033044;28;20052;-78
2022/06/17 07:06:33;;;;;;;10.70;7.75;;;;;;;;;;5033121;28;20032;-78
2022/06/17 07:08:59;;;;;;;11.38;8.52;;;;;;;;;;5015635;28;20053;-79
2022/06/17 07:11:25;;;;;;;14.65;8.85;;;;;;;;;;5033312;28;20488;-79
2022/06/17 07:13:52;;;;;;;19.75;16.92;;;;;;;;;;5033279;28;20104;-79
2022/06/17 07:16:18;;;;;;;15.15;9.65;;;;;;;;;;5033069;28;20026;-79
2022/06/17 07:18:44;;;;;;;13.15;8.35;;;;;;;;;;5032799;28;20036;-79
2022/06/17 07:21:11;;;;;;;15.07;8.65;;;;;;;;;;5032791;28;20472;-75
2022/06/17 07:23:39;;;;;;;16.85;8.95;;;;;;;;;;5015106;28;20042;-79
2022/06/17 07:26:25;;;;;;;11.98;8.80;;;;;;;;;;5032815;28;20428;-80
2022/06/17 07:28:52;;;;;;;11.32;8.75;;;;;;;;;;5020948;28;20025;-79
2022/06/17 07:31:19;;;;;;;10.50;8.35;;;;;;;;;;5032985;28;20084;-73
2022/06/17 07:33:45;;;;;;;14.02;7.75;;;;;;;;;;5015130;28;20463;-80
2022/06/17 07:39:53;;;;;;;13.30;8.30;;;;;;;;;;5032661;28;20049;-78
2022/06/17 07:41:43;;;;;;;10.88;7.57;;;;;;;;;;5032604;28;20044;-78
2022/06/17 07:44:09;;;;;;;10.30;8.07;;;;;;;;;;5032678;28;20503;-75
2022/06/17 07:46:35;;;;;;;12.90;8.93;;;;;;;;;;5014889;28;20021;-75
2022/06/17 07:49:01;;;;;;;13.38;8.95;;;;;;;;;;5032522;28;20017;-79
2022/06/17 07:51:27;;;;;;;12.90;8.63;;;;;;;;;;5032576;28;20021;-79
2022/06/17 07:53:53;;;;;;;22.25;8.85;;;;;;;;;;5032307;28;20029;-79
2022/06/17 07:56:20;;;;;;;12.07;7.75;;;;;;;;;;5032581;28;20025;-70
2022/06/17 07:58:47;;;;;;;9.82;7.75;;;;;;;;;;5032405;28;20041;-74
2022/06/17 08:01:13;;;;;;;15.10;8.05;;;;;;;;;;5032796;28;20028;-79
2022/06/17 08:03:39;;;;;;;12.85;8.15;;;;;;;;;;5032580;28;20061;-79
2022/06/17 08:06:06;;;;;;;27.27;9.18;;;;;;;;;;5032434;28;20049;-78
2022/06/17 08:08:34;;;;;;;17.67;9.20;;;;;;;;;;5032580;28;20057;-80
2022/06/17 08:11:01;;;;;;;13.15;7.93;;;;;;;;;;5014584;28;20387;-79
2022/06/17 08:13:27;;;;;;;27.08;9.13;;;;;;;;;;5032344;28;20472;-78
2022/06/17 08:15:55;;;;;;;12.20;8.32;;;;;;;;;;5032395;28;20030;-78
2022/06/17 08:18:21;;;;;;;20.90;8.40;;;;;;;;;;5032347;28;20033;-79
2022/06/17 08:20:48;;;;;;;22.27;8.88;;;;;;;;;;5032724;28;20022;-80
2022/06/17 08:23:14;;;;;;;14.82;8.05;;;;;;;;;;5032149;28;20439;-70
2022/06/17 08:25:40;;;;;;;12.07;7.65;;;;;;;;;;5032503;28;20047;-80
2022/06/17 08:28:09;;;;;;;18.23;8.43;;;;;;;;;;5032029;28;20021;-70
2022/06/17 08:30:40;;;;;;;22.20;8.60;;;;;;;;;;5032311;28;20056;-76
2022/06/17 08:33:06;;;;;;;;;;;;;;;;;;5032690;28;20086;-70
2022/06/17 08:35:33;;;;;;;20.80;8.38;;;;;;;;;;5032263;28;20356;-69
2022/06/17 08:38:07;;;;;;;19.50;8.73;;;;;;;;;;5032194;28;20148;-70
2022/06/17 08:40:33;;;;;;;15.02;8.88;;;;;;;;;;5032039;28;20112;-69
2022/06/17 08:43:10;;;;;;;13.85;7.55;;;;;;;;;;5014488;28;20442;-70
2022/06/17 08:45:56;;;;;;;12.85;7.32;;;;;;;;;;5032236;28;20026;-70
2022/06/17 08:48:31;;;;;;;10.27;7.40;;;;;;;;;;5032266;28;20076;-70
2022/06/17 08:51:12;;;;;;;22.85;10.00;;;;;;;;;;5031943;28;20021;-79
2022/06/17 08:53:52;;;;;;;23.98;10.32;;;;;;;;;;5032301;28;20111;-70
2022/06/17 08:56:25;;;;;;;15.00;8.07;;;;;;;;;;5032110;28;20041;-76
2022/06/17 08:58:54;;;;;;;13.30;8.20;;;;;;;;;;5032229;28;20099;-80
2022/06/17 09:01:29;;;;;;;35.45;11.13;;;;;;;;;;5032027;28;20033;-78
2022/06/17 09:04:25;;;;;;;67.05;15.80;;;;;;;;;;5031978;28;20048;-78
2022/06/17 09:07:10;;;;;;;19.70;10.05;;;;;;;;;;5011438;28;20115;-79
2022/06/17 09:09:51;;;;;;;19.17;9.68;;;;;;;;;;5035520;28;20033;-80
2022/06/17 09:12:43;;;;;;;17.77;9.98;;;;;;;;;;5035444;28;20057;-80
2022/06/17 09:15:09;;;;;;;14.93;9.57;;;;;;;;;;5017875;28;20045;-79
2022/06/17 09:17:44;;;;;;;15.27;9.27;;;;;;;;;;5035437;28;20395;-80
2022/06/17 09:20:12;;;;;;;27.23;10.80;;;;;;;;;;5035401;28;20049;-79
2022/06/17 09:22:44;;;;;;;19.38;9.10;;;;;;;;;;5035369;28;20048;-80
2022/06/17 09:25:13;;;;;;;15.48;8.52;;;;;;;;;;5035467;28;20365;-80
2022/06/17 09:27:41;;;;;;;14.73;8.93;;;;;;;;;;5017446;28;20037;-75
2022/06/17 09:30:15;;;;;;;14.07;8.93;;;;;;;;;;5035537;28;20180;-79
2022/06/17 09:32:41;;;;;;;12.18;7.07;;;;;;;;;;5035151;28;20021;-79
2022/06/17 09:35:13;;;;;;;15.30;7.22;;;;;;;;;;5017154;28;20104;-79
2022/06/17 09:37:44;;;;;;;22.23;8.85;;;;;;;;;;5003616;28;20507;-79
2022/06/17 09:40:16;;;;;;;17.35;8.25;;;;;;;;;;5035015;28;20029;-78
2022/06/17 09:42:47;;;;;;;16.38;7.95;;;;;;;;;;5034990;28;20438;-70
2022/06/17 09:45:16;;;;;;;15.63;8.60;;;;;;;;;;5034891;28;20083;-71
2022/06/17 09:47:44;;;;;;;9.63;7.38;;;;;;;;;;5034590;28;20021;-77
2022/06/17 09:50:19;;;;;;;11.13;6.90;;;;;;;;;;5034793;28;20411;-80
2022/06/17 09:52:55;;;;;;;12.27;6.05;;;;;;;;;;5034666;28;20383;-69
2022/06/17 09:55:43;;;;;;;12.05;6.97;;;;;;;;;;5034762;28;20029;-77
2022/06/17 09:58:12;;;;;;;13.95;6.57;;;;;;;;;;5021597;28;20053;-80
2022/06/17 10:00:49;;;;;;;23.50;6.18;;;;;;;;;;5034623;28;20029;-79
2022/06/17 10:03:18;;;;;;;14.23;6.15;;;;;;;;;;5021653;28;20025;-71
2022/06/17 10:06:08;;;;;;;8.40;6.50;;;;;;;;;;5034531;28;20116;-81
2022/06/17 10:08:52;;;;;;;15.45;6.43;;;;;;;;;;4954029;29;20474;-70
2022/06/17 10:11:43;;;;;;;9.55;6.22;;;;;;;;;;4954079;29;20027;-75
2022/06/17 10:14:14;;;;;;;14.93;6.77;;;;;;;;;;4937979;29;20027;-70
2022/06/17 10:19:34;;;;;;;16.30;6.82;;;;;;;;;;4954231;28;20649;-78
2022/06/17 10:22:06;;;;;;;13.85;5.88;;;;;;;;;;4954015;29;20038;-79
2022/06/17 10:24:37;;;;;;;11.98;6.47;;;;;;;;;;4953882;29;20042;-78
2022/06/17 10:27:06;;;;;;;8.95;5.40;;;;;;;;;;4954051;29;20402;-80
2022/06/17 10:29:32;;;;;;;25.45;7.25;;;;;;;;;;4954051;29;20027;-78
2022/06/17 10:31:59;;;;;;;11.07;5.72;;;;;;;;;;4953553;29;20502;-80
2022/06/17 10:34:27;;;;;;;9.77;6.38;;;;;;;;;;4953656;29;20094;-78
2022/06/17 10:36:56;;;;;;;10.57;5.47;;;;;;;;;;4937072;29;20502;-70
2022/06/17 10:39:23;;;;;;;15.23;6.43;;;;;;;;;;4940715;29;20518;-80
2022/06/17 10:41:49;;;;;;;13.18;5.40;;;;;;;;;;4953779;29;20099;-79
2022/06/17 10:44:16;;;;;;;16.25;6.60;;;;;;;;;;4937469;29;20019;-77
2022/06/17 10:46:45;;;;;;;11.75;6.32;;;;;;;;;;5023355;28;20092;-80
2022/06/17 10:49:47;;;;;;;11.02;5.53;;;;;;;;;;5033610;28;20017;-79
2022/06/17 10:52:21;;;;;;;6.88;5.40;;;;;;;;;;4953424;29;20095;-77
2022/06/17 10:54:49;;;;;;;12.70;5.80;;;;;;;;;;4953353;29;20394;-79
2022/06/17 10:57:26;;;;;;;11.68;5.32;;;;;;;;;;4953196;29;20050;-75
2022/06/17 10:59:52;;;;;;;10.30;5.40;;;;;;;;;;4953104;29;20031;-73
2022/06/17 11:02:24;;;;;;;12.90;5.80;;;;;;;;;;4953539;28;20490;-80
2022/06/17 11:04:51;;;;;;;11.00;5.47;;;;;;;;;;4952780;28;20078;-78
2022/06/17 11:07:18;;;;;;;10.02;5.47;;;;;;;;;;4953082;29;20394;-74
2022/06/17 11:09:52;;;;;;;10.07;5.30;;;;;;;;;;4952958;29;20479;-70
2022/06/17 11:12:21;;;;;;;14.23;5.93;;;;;;;;;;4953230;28;20031;-69
2022/06/17 11:14:47;;;;;;;10.02;5.45;;;;;;;;;;4953071;29;20027;-76
2022/06/17 11:17:32;;;;;;;26.15;7.07;;;;;;;;;;4953101;28;20042;-69
2022/06/17 11:20:02;;;;;;;9.10;5.15;;;;;;;;;;4936857;29;20023;-70
2022/06/17 11:22:31;;;;;;;11.00;4.75;;;;;;;;;;4952835;29;20031;-73
2022/06/17 11:24:59;;;;;;;13.75;5.95;;;;;;;;;;4952657;29;20511;-80
2022/06/17 11:27:31;;;;;;;13.57;5.55;;;;;;;;;;5032174;28;20116;-81
2022/06/17 11:30:12;;;;;;;14.55;5.18;;;;;;;;;;5032507;28;20029;-81
2022/06/17 11:32:44;;;;;;;15.15;5.50;;;;;;;;;;5032985;28;20039;-73
2022/06/17 11:35:20;;;;;;;10.75;4.65;;;;;;;;;;5033270;28;20477;-80
2022/06/17 11:37:48;;;;;;;8.95;5.63;;;;;;;;;;5020167;28;20040;-80
2022/06/17 11:40:16;;;;;;;12.10;5.57;;;;;;;;;;5032813;28;20021;-80
2022/06/17 11:42:53;;;;;;;13.60;5.55;;;;;;;;;;5032720;28;20017;-79
2022/06/17 11:45:32;;;;;;;17.90;4.95;;;;;;;;;;5014997;28;20075;-79
2022/06/17 11:48:19;;;;;;;13.50;5.22;;;;;;;;;;5028473;28;20037;-80
2022/06/17 11:51:24;;;;;;;6.47;4.78;;;;;;;;;;5032376;28;20113;-79
2022/06/17 11:53:53;;;;;;;15.18;4.85;;;;;;;;;;4952448;29;20063;-80
2022/06/17 11:56:40;;;;;;;11.65;5.95;;;;;;;;;;4952489;29;20027;-79
2022/06/17 11:59:08;;;;;;;9.68;4.43;;;;;;;;;;4952458;29;20506;-80
2022/06/17 12:01:34;;;;;;;14.13;5.93;;;;;;;;;;4952692;29;20042;-78
2022/06/17 12:04:01;;;;;;;11.82;5.60;;;;;;;;;;4952160;28;20058;-77
2022/06/17 12:06:28;;;;;;;7.82;4.20;;;;;;;;;;4952158;29;20035;-79
2022/06/17 12:08:57;;;;;;;11.45;5.70;;;;;;;;;;4952415;29;20055;-76
2022/06/17 12:11:28;;;;;;;10.95;5.55;;;;;;;;;;4952344;28;20078;-80
2022/06/17 12:13:57;;;;;;;11.90;4.93;;;;;;;;;;4952641;29;20459;-80
2022/06/17 12:16:37;;;;;;;9.65;4.82;;;;;;;;;;4952317;29;20529;-80
2022/06/17 12:19:03;;;;;;;10.00;5.45;;;;;;;;;;4952361;28;20043;-80
2022/06/17 12:21:44;;;;;;;12.43;6.07;;;;;;;;;;4952202;29;20033;-80
2022/06/17 12:24:24;;;;;;;15.05;5.22;;;;;;;;;;4979437;28;20036;-79
2022/06/17 12:26:53;;;;;;;19.85;6.10;;;;;;;;;;5032316;28;20017;-81
2022/06/17 12:29:22;;;;;;;15.38;5.53;;;;;;;;;;5032326;28;20123;-76
2022/06/17 12:31:53;;;;;;;14.23;5.07;;;;;;;;;;5032644;28;20483;-80
2022/06/17 12:34:25;;;;;;;9.52;5.28;;;;;;;;;;5032684;28;20030;-79
2022/06/17 12:36:54;;;;;;;9.57;4.75;;;;;;;;;;5032026;28;20041;-80
2022/06/17 12:39:25;;;;;;;13.77;5.65;;;;;;;;;;5034644;28;20025;-73
2022/06/17 12:42:04;;;;;;;9.02;5.63;;;;;;;;;;5036563;28;20036;-79
2022/06/17 12:44:50;;;;;;;10.90;5.15;;;;;;;;;;5036453;28;20017;-79
2022/06/17 12:47:28;;;;;;;8.48;4.95;;;;;;;;;;4953601;29;20042;-80
2022/06/17 12:53:31;;;;;;;16.27;6.85;;;;;;;;;;4955657;28;20034;-80
2022/06/17 12:55:54;;;;;;;11.38;6.03;;;;;;;;;;4955472;29;20039;-80
2022/06/17 12:58:25;;;;;;;7.97;5.60;;;;;;;;;;4955615;29;20138;-81
2022/06/17 13:00:54;;;;;;;6.53;5.80;;;;;;;;;;4939467;29;20023;-80
2022/06/17 13:03:32;;;;;;;5.35;4.85;;;;;;;;;;4955483;29;20561;-81
2022/06/17 13:06:03;;;;;;;6.80;4.43;;;;;;;;;;4955328;29;20051;-81
2022/06/17 13:08:39;;;;;;;11.07;6.43;;;;;;;;;;4955447;29;20031;-81
2022/06/17 13:11:22;;;;;;;10.23;5.80;;;;;;;;;;4955301;29;20043;-80
2022/06/17 13:13:56;;;;;;;6.45;5.15;;;;;;;;;;4955241;28;20588;-77
2022/06/17 13:16:22;;;;;;;7.05;4.93;;;;;;;;;;4955306;29;20043;-70
2022/06/17 13:18:51;;;;;;;10.95;8.48;;;;;;;;;;4955244;29;20409;-70
2022/06/17 13:21:29;;;;;;;7.93;6.72;;;;;;;;;;4954880;28;20082;-76
2022/06/17 13:23:58;;;;;;;7.65;6.57;;;;;;;;;;4981127;28;20044;-80
2022/06/17 13:26:31;;;;;;;8.98;6.45;;;;;;;;;;5035036;28;20384;-80
2022/06/17 13:29:19;;;;;;;10.18;6.55;;;;;;;;;;5035430;28;20017;-69
2022/06/17 13:31:49;;;;;;;9.77;5.22;;;;;;;;;;5034987;28;20021;-70
2022/06/17 13:34:41;;;;;;;13.07;5.25;;;;;;;;;;5035352;28;20025;-75
2022/06/17 13:37:12;;;;;;;10.35;6.18;;;;;;;;;;5031100;28;20053;-80
2022/06/17 13:39:41;;;;;;;9.80;6.00;;;;;;;;;;5035191;28;20021;-80
2022/06/17 13:42:09;;;;;;;8.13;5.30;;;;;;;;;;5034814;28;20037;-80
2022/06/17 13:44:45;;;;;;;8.07;5.97;;;;;;;;;;5034930;28;20476;-70
2022/06/17 13:47:16;;;;;;;6.45;4.35;;;;;;;;;;5034673;28;20040;-80
2022/06/17 13:49:42;;;;;;;6.13;4.80;;;;;;;;;;5034476;28;20017;-74
2022/06/17 13:52:17;;;;;;;20.05;6.75;;;;;;;;;;5034825;28;20063;-78
2022/06/17 13:54:56;;;;;;;8.10;4.35;;;;;;;;;;5034898;28;20040;-81
2022/06/17 13:57:25;;;;;;;12.60;4.72;;;;;;;;;;5016968;28;20045;-78
2022/06/17 13:59:56;;;;;;;9.15;5.03;;;;;;;;;;5034269;28;20487;-80
2022/06/17 14:02:50;;;;;;;6.75;4.10;;;;;;;;;;5034659;28;20079;-80
2022/06/17 14:05:25;;;;;;;6.60;4.18;;;;;;;;;;5024045;28;20471;-80
2022/06/17 14:07:54;;;;;;;7.22;3.97;;;;;;;;;;5034256;28;20373;-81
2022/06/17 14:10:35;;;;;;;10.18;6.32;;;;;;;;;;5034401;28;20064;-80
2022/06/17 14:13:14;;;;;;;10.10;4.43;;;;;;;;;;5034561;28;20105;-81
2022/06/17 14:15:45;;;;;;;6.72;4.53;;;;;;;;;;5034793;28;20017;-80
2022/06/17 14:18:21;;;;;;;5.20;4.15;;;;;;;;;;5034434;28;20474;-81
2022/06/17 14:20:57;;;;;;;10.75;4.07;;;;;;;;;;5034145;28;20026;-81
2022/06/17 14:23:28;;;;;;;7.40;4.10;;;;;;;;;;5034349;28;20048;-80
2022/06/17 14:25:57;;;;;;;5.78;3.92;;;;;;;;;;5034211;28;20025;-81
2022/06/17 14:28:32;;;;;;;9.60;5.25;;;;;;;;;;5034146;28;20052;-79
2022/06/17 14:31:21;;;;;;;7.80;4.47;;;;;;;;;;5034058;28;20037;-81
2022/06/17 14:33:50;;;;;;;7.20;4.40;;;;;;;;;;5032719;28;20549;-69
2022/06/17 14:36:18;;;;;;;6.15;4.20;;;;;;;;;;5033781;28;20037;-79
2022/06/17 14:38:55;;;;;;;6.68;4.60;;;;;;;;;;5034154;28;20504;-79
2022/06/17 14:44:26;;;;;;;13.35;6.43;;;;;;;;;;4972959;28;20080;-80
2022/06/17 14:47:11;;;;;;;11.95;5.32;;;;;;;;;;4972934;28;20062;-80
2022/06/17 14:49:39;;;;;;;7.78;5.05;;;;;;;;;;4947502;28;20027;-80
2022/06/17 14:52:26;;;;;;;9.70;4.70;;;;;;;;;;4972762;28;20130;-80